Time;durP1;ratioP1;P1;durP2;ratioP2;P2;SDS_P1;SDS_P2;PMS_P1;PMS_P2;Temp;Humidity;BMP_temperature;BMP_pressure;BME280_temperature;BME280_humidity;BME280_pressure;Samples;Min_cycle;Max_cycle;Signal;HPM_P1;HPM_P2
2022/05/20 00:00:37;;;;;;;;;;;;;;;25.50;42.72;97538.34;4234663;28;5666;-67
2022/05/20 00:02:40;;;;;;;;;;;;;;;25.51;42.96;97534.56;4233286;28;5736;-66
2022/05/20 00:04:43;;;;;;;;;;;;;;;25.51;43.15;97537.25;4235352;27;6347;-66
2022/05/20 00:06:46;;;;;;;;;;;;;;;25.49;43.12;97534.00;4225546;28;5664;-66
2022/05/20 00:08:49;;;;;;;;;;;;;;;25.48;43.03;97535.09;4227300;28;5727;-66
2022/05/20 00:10:53;;;;;;;;;;;;;;;25.47;42.89;97532.63;4222757;28;5659;-66
2022/05/20 00:12:57;;;;;;;;;;;;;;;25.44;43.05;97536.69;4233883;28;5650;-66
2022/05/20 00:15:00;;;;;;;;;;;;;;;25.42;43.34;97530.75;4233797;27;5837;-66
2022/05/20 00:17:05;;;;;;;;;;;;;;;25.41;43.39;97536.44;4234341;28;5661;-66
2022/05/20 00:19:09;;;;;;;;;;;;;;;25.40;43.23;97532.94;4235243;27;5658;-67
2022/05/20 00:21:16;;;;;;;;;;;;;;;25.38;43.40;97531.56;4225347;28;5667;-67
2022/05/20 00:23:19;;;;;;;;;;;;;;;25.36;42.97;97531.81;4219230;28;5683;-67
2022/05/20 00:27:44;;;;;;;;;;;;;;;25.31;43.38;97534.53;4231892;27;5833;-67
2022/05/20 00:29:47;;;;;;;;;;;;;;;25.29;43.15;97536.72;4217527;28;5759;-66
2022/05/20 00:31:50;;;;;;;;;;;;;;;25.27;43.15;97530.75;4230985;28;5705;-66
2022/05/20 00:33:55;;;;;;;;;;;;;;;25.28;43.25;97537.78;4234446;28;5793;-66
2022/05/20 00:35:58;;;;;;;;;;;;;;;25.25;43.42;97532.91;4233867;28;5741;-66
2022/05/20 00:38:01;;;;;;;;;;;;;;;25.24;43.30;97531.28;4234070;27;5849;-67
2022/05/20 00:40:05;;;;;;;;;;;;;;;25.21;43.25;97540.75;4234411;28;5806;-66
2022/05/20 00:42:13;;;;;;;;;;;;;;;25.21;43.20;97534.53;4229101;28;5959;-66
2022/05/20 00:44:16;;;;;;;;;;;;;;;25.19;43.14;97537.50;4234618;27;5712;-66
2022/05/20 00:46:22;;;;;;;;;;;;;;;25.17;43.21;97542.38;4229252;27;5674;-66
2022/05/20 00:48:26;;;;;;;;;;;;;;;25.17;43.31;97533.44;4234951;28;5071;-66
2022/05/20 00:50:31;;;;;;;;;;;;;;;25.17;43.08;97536.97;4232723;28;5662;-66
2022/05/20 00:52:37;;;;;;;;;;;;;;;25.18;43.08;97548.59;4232936;27;5662;-66
2022/05/20 00:54:45;;;;;;;;;;;;;;;25.19;43.34;97544.81;4234439;27;6427;-66
2022/05/20 00:56:54;;;;;;;;;;;;;;;25.19;42.92;97536.69;4234117;27;5841;-66
2022/05/20 00:58:59;;;;;;;;;;;;;;;25.19;42.92;97540.22;4234432;28;6319;-66
2022/05/20 01:01:04;;;;;;;;;;;;;;;25.19;43.26;97544.81;4233415;27;5658;-66
2022/05/20 01:03:10;;;;;;;;;;;;;;;25.19;43.12;97542.91;4233072;27;5785;-66
2022/05/20 01:05:18;;;;;;;;;;;;;;;25.19;43.01;97542.09;4224234;28;5654;-66
2022/05/20 01:07:24;;;;;;;;;;;;;;;25.20;42.92;97541.03;4217834;28;5711;-66
2022/05/20 01:09:27;;;;;;;;;;;;;;;25.20;43.04;97544.53;4217714;28;5753;-66
2022/05/20 01:11:30;;;;;;;;;;;;;;;25.20;43.28;97541.03;4228736;28;5837;-66
2022/05/20 01:13:34;;;;;;;;;;;;;;;25.18;43.39;97543.19;4233943;28;5662;-66
2022/05/20 01:15:37;;;;;;;;;;;;;;;25.19;43.20;97547.50;4227942;28;5838;-67
2022/05/20 01:17:41;;;;;;;;;;;;;;;25.18;43.46;97545.91;4233177;27;5690;-66
2022/05/20 01:19:48;;;;;;;;;;;;;;;25.17;43.21;97544.28;4233623;27;5643;-67
2022/05/20 01:21:50;;;;;;;;;;;;;;;25.18;43.60;97551.31;4234308;27;5713;-67
2022/05/20 01:24:00;;;;;;;;;;;;;;;25.14;43.60;97542.91;4233979;28;5876;-67
2022/05/20 01:26:04;;;;;;;;;;;;;;;25.12;43.42;97547.75;4233640;28;5661;-67
2022/05/20 01:28:07;;;;;;;;;;;;;;;25.10;43.70;97551.81;4233721;28;5744;-67
2022/05/20 01:30:13;;;;;;;;;;;;;;;25.08;43.70;97540.47;4232275;28;5820;-67
2022/05/20 01:32:16;;;;;;;;;;;;;;;25.08;43.49;97540.47;4217995;28;5698;-67
2022/05/20 01:34:20;;;;;;;;;;;;;;;25.07;43.66;97541.53;4217616;28;5081;-67
2022/05/20 01:36:25;;;;;;;;;;;;;;;25.05;43.29;97536.41;4230577;28;6460;-67
2022/05/20 01:38:28;;;;;;;;;;;;;;;25.05;43.68;97535.59;4233536;27;5626;-67
2022/05/20 01:40:41;;;;;;;;;;;;;;;25.04;43.35;97533.97;4233762;28;5658;-67
2022/05/20 01:42:51;;;;;;;;;;;;;;;25.02;43.33;97533.41;4236754;27;5646;-67
2022/05/20 01:45:00;;;;;;;;;;;;;;;25.01;43.13;97537.16;4220570;28;5870;-67
2022/05/20 01:47:12;;;;;;;;;;;;;;;24.98;43.55;97539.31;4230033;28;5750;-67
2022/05/20 01:49:24;;;;;;;;;;;;;;;24.97;43.49;97548.53;4220750;28;5659;-67
2022/05/20 01:51:32;;;;;;;;;;;;;;;24.97;43.56;97540.41;4223940;28;5709;-67
2022/05/20 01:53:42;;;;;;;;;;;;;;;24.96;43.48;97548.78;4220520;28;5827;-67
2022/05/20 01:55:51;;;;;;;;;;;;;;;24.94;43.44;97545.56;4227296;28;5744;-67
2022/05/20 01:58:02;;;;;;;;;;;;;;;24.90;43.06;97545.25;4237295;27;5645;-67
2022/05/20 02:00:09;;;;;;;;;;;;;;;24.90;43.51;97547.13;4237468;27;5667;-67
2022/05/20 02:02:24;;;;;;;;;;;;;;;24.87;43.02;97545.78;4237347;27;5659;-67
2022/05/20 02:04:33;;;;;;;;;;;;;;;24.87;43.56;97545.78;4236847;27;5820;-67
2022/05/20 02:06:41;;;;;;;;;;;;;;;24.88;43.08;97547.41;4236587;27;5657;-67
2022/05/20 02:08:49;;;;;;;;;;;;;;;24.85;43.62;97547.13;4237369;28;5871;-67
2022/05/20 02:10:58;;;;;;;;;;;;;;;24.81;43.50;97536.06;4237346;28;5713;-67
2022/05/20 02:13:05;;;;;;;;;;;;;;;24.81;43.36;97546.06;4236950;27;5735;-67
2022/05/20 02:15:14;;;;;;;;;;;;;;;24.79;43.70;97545.50;4229931;27;5711;-67
2022/05/20 02:17:24;;;;;;;;;;;;;;;24.81;43.71;97541.47;4236104;28;5638;-67
2022/05/20 02:19:32;;;;;;;;;;;;;;;24.81;43.34;97544.16;4237067;28;6749;-67
2022/05/20 02:21:40;;;;;;;;;;;;;;;24.81;43.79;97548.75;4237194;27;5642;-66
2022/05/20 02:23:47;;;;;;;;;;;;;;;24.80;43.89;97537.09;4237464;28;5728;-67
2022/05/20 02:25:53;;;;;;;;;;;;;;;24.78;43.87;97539.28;4235830;28;5825;-67
2022/05/20 02:28:02;;;;;;;;;;;;;;;24.78;43.97;97535.75;4221170;28;5758;-67
2022/05/20 02:30:09;;;;;;;;;;;;;;;24.78;44.04;97538.47;4224970;27;5754;-67
2022/05/20 02:32:18;;;;;;;;;;;;;;;24.78;43.92;97536.56;4220131;28;5687;-67
2022/05/20 02:34:21;;;;;;;;;;;;;;;24.77;43.82;97534.94;4220054;28;5773;-67
2022/05/20 02:36:28;;;;;;;;;;;;;;;24.76;44.25;97530.63;4224369;28;5783;-67
2022/05/20 02:38:31;;;;;;;;;;;;;;;24.75;44.31;97536.28;4235866;28;5732;-66
2022/05/20 02:40:34;;;;;;;;;;;;;;;24.73;44.32;97533.88;4236228;27;5665;-67
2022/05/20 02:42:37;;;;;;;;;;;;;;;24.72;44.22;97534.94;4236380;27;5710;-67
2022/05/20 02:44:41;;;;;;;;;;;;;;;24.68;44.26;97528.41;4235409;28;5689;-67
2022/05/20 02:46:47;;;;;;;;;;;;;;;24.64;44.20;97524.63;4244283;27;7142;-67
2022/05/20 02:48:50;;;;;;;;;;;;;;;24.59;44.28;97527.34;4235308;28;5666;-67
2022/05/20 02:50:53;;;;;;;;;;;;;;;24.57;44.44;97527.56;4236181;28;5714;-67
2022/05/20 02:52:56;;;;;;;;;;;;;;;24.54;43.95;97528.09;4236150;27;5654;-67
2022/05/20 02:54:59;;;;;;;;;;;;;;;24.50;44.32;97518.09;4235871;27;5741;-67
2022/05/20 02:57:03;;;;;;;;;;;;;;;24.47;44.52;97521.34;4229367;27;5723;-67
2022/05/20 03:06:08;;;;;;;;;;;;;;;24.33;44.37;97523.69;4235458;28;5661;-67
2022/05/20 03:08:11;;;;;;;;;;;;;;;24.30;44.07;97522.34;4223019;28;5758;-67
2022/05/20 03:10:14;;;;;;;;;;;;;;;24.29;44.05;97525.28;4219161;28;5719;-67
2022/05/20 03:12:18;;;;;;;;;;;;;;;24.28;44.19;97520.94;4233402;28;5658;-67
2022/05/20 03:14:23;;;;;;;;;;;;;;;24.30;44.34;97519.63;4235032;28;5748;-64
2022/05/20 03:16:27;;;;;;;;;;;;;;;24.30;44.43;97516.09;4231745;28;5811;-68
2022/05/20 03:18:30;;;;;;;;;;;;;;;24.32;44.70;97524.78;4232734;27;6739;-67
2022/05/20 03:20:34;;;;;;;;;;;;;;;24.31;44.39;97526.66;4231606;28;5697;-67
2022/05/20 03:22:37;;;;;;;;;;;;;;;24.28;44.65;97527.16;4235950;28;5654;-67
2022/05/20 03:24:41;;;;;;;;;;;;;;;24.27;44.37;97524.72;4234840;27;5642;-67
2022/05/20 03:26:44;;;;;;;;;;;;;;;24.25;44.64;97522.28;4234660;27;5646;-67
2022/05/20 03:28:47;;;;;;;;;;;;;;;24.23;44.53;97512.81;4224261;27;5865;-67
2022/05/20 03:30:50;;;;;;;;;;;;;;;24.21;45.06;97517.66;4218832;28;5687;-67
2022/05/20 03:32:54;;;;;;;;;;;;;;;24.20;44.93;97516.03;4233653;28;5731;-67
2022/05/20 03:34:57;;;;;;;;;;;;;;;24.17;44.99;97517.38;4235232;27;5740;-67
2022/05/20 03:37:01;;;;;;;;;;;;;;;24.17;44.88;97519.28;4230145;27;5716;-67
2022/05/20 03:39:04;;;;;;;;;;;;;;;24.16;45.14;97513.06;4235836;28;5661;-67
2022/05/20 03:41:07;;;;;;;;;;;;;;;24.19;45.03;97514.41;4235360;28;5737;-67
2022/05/20 03:43:10;;;;;;;;;;;;;;;24.19;44.94;97512.53;4229854;28;6669;-67
2022/05/20 03:45:13;;;;;;;;;;;;;;;24.18;44.99;97513.59;4229775;27;5782;-67
2022/05/20 03:47:16;;;;;;;;;;;;;;;24.17;45.06;97511.97;4230590;28;7138;-67
2022/05/20 03:49:22;;;;;;;;;;;;;;;24.15;45.18;97510.63;4232427;28;5662;-67
2022/05/20 03:51:25;;;;;;;;;;;;;;;24.14;45.35;97515.22;4231959;28;5670;-67
2022/05/20 03:53:28;;;;;;;;;;;;;;;24.14;45.50;97511.69;4232387;28;5114;-67
2022/05/20 03:55:31;;;;;;;;;;;;;;;24.10;45.46;97512.22;4235717;27;5650;-67
2022/05/20 03:57:34;;;;;;;;;;;;;;;24.09;45.37;97520.56;4233099;27;5653;-67
2022/05/20 03:59:38;;;;;;;;;;;;;;;24.08;45.36;97511.66;4227937;28;5687;-67
2022/05/20 04:01:57;;;;;;;;;;;;;;;24.09;45.50;97512.47;4231725;28;5751;-66
2022/05/20 04:04:00;;;;;;;;;;;;;;;24.07;45.96;97511.94;4229546;28;5641;-64
2022/05/20 04:06:04;;;;;;;;;;;;;;;24.04;45.91;97512.47;4233103;27;5714;-66
2022/05/20 04:08:08;;;;;;;;;;;;;;;24.01;45.71;97510.25;4223520;28;7695;-66
2022/05/20 04:10:11;;;;;;;;;;;;;;;24.02;45.90;97517.31;4235104;28;5659;-67
2022/05/20 04:12:21;;;;;;;;;;;;;;;24.00;45.88;97506.75;4233250;28;5761;-64
2022/05/20 04:14:24;;;;;;;;;;;;;;;24.00;46.13;97514.84;4231381;28;5817;-65
2022/05/20 04:16:27;;;;;;;;;;;;;;;24.01;46.29;97512.97;4227676;28;5746;-65
2022/05/20 04:18:30;;;;;;;;;;;;;;;24.03;46.00;97524.34;4230050;27;5695;-66
2022/05/20 04:20:33;;;;;;;;;;;;;;;24.02;45.78;97518.13;4219528;28;5683;-65
2022/05/20 04:22:40;;;;;;;;;;;;;;;24.03;46.05;97522.44;4218189;28;5695;-65
2022/05/20 04:24:43;;;;;;;;;;;;;;;24.02;46.01;97518.13;4218158;28;5731;-66
2022/05/20 04:26:45;;;;;;;;;;;;;;;24.04;46.16;97521.38;4224571;28;5658;-66
2022/05/20 04:28:48;;;;;;;;;;;;;;;24.05;45.81;97519.47;4228645;27;5708;-66
2022/05/20 04:31:00;;;;;;;;;;;;;;;24.05;46.04;97522.19;4218030;28;5730;-66
2022/05/20 04:33:04;;;;;;;;;;;;;;;24.06;46.27;97523.81;4232833;28;7768;-66
2022/05/20 04:35:08;;;;;;;;;;;;;;;24.06;46.04;97518.41;4219017;28;5750;-66
2022/05/20 04:37:11;;;;;;;;;;;;;;;24.03;46.01;97513.53;4234068;27;5658;-66
2022/05/20 04:39:16;;;;;;;;;;;;;;;24.01;46.00;97512.97;4224588;27;5855;-66
2022/05/20 04:48:23;;;;;;;;;;;;;;;23.99;46.01;97525.91;4218099;28;5065;-66
2022/05/20 04:50:26;;;;;;;;;;;;;;;23.98;46.13;97525.09;4229451;28;6208;-66
2022/05/20 04:52:29;;;;;;;;;;;;;;;23.96;46.22;97529.97;4233925;28;5662;-66
2022/05/20 04:54:50;;;;;;;;;;;;;;;23.97;46.70;97528.88;4233582;28;5642;-66
2022/05/20 04:56:53;;;;;;;;;;;;;;;23.96;46.37;97529.16;4227798;27;6517;-66
2022/05/20 04:58:55;;;;;;;;;;;;;;;23.95;46.87;97530.22;4225418;28;5635;-66
2022/05/20 05:00:59;;;;;;;;;;;;;;;23.95;46.65;97527.53;4222697;27;5790;-66
2022/05/20 05:03:01;;;;;;;;;;;;;;;23.93;47.03;97535.06;4229909;27;5661;-66
2022/05/20 05:05:06;;;;;;;;;;;;;;;23.94;46.86;97542.91;4231301;27;5756;-67
2022/05/20 05:07:09;;;;;;;;;;;;;;;23.94;47.08;97539.41;4227403;28;5667;-66
2022/05/20 05:09:12;;;;;;;;;;;;;;;23.96;47.01;97545.34;4220130;27;5767;-66
2022/05/20 05:11:17;;;;;;;;;;;;;;;23.96;46.97;97542.66;4217777;28;5702;-66
2022/05/20 05:13:20;;;;;;;;;;;;;;;23.97;46.97;97536.97;4224685;28;5691;-66
2022/05/20 05:15:24;;;;;;;;;;;;;;;23.99;46.82;97539.41;4225276;28;6857;-65
2022/05/20 05:19:49;;;;;;;;;;;;;;;24.02;47.13;97545.13;4228762;28;5675;-64
2022/05/20 05:21:52;;;;;;;;;;;;;;;24.02;47.49;97544.31;4225788;28;5776;-64
2022/05/20 05:23:55;;;;;;;;;;;;;;;24.04;47.30;97548.38;4221139;28;5672;-64
2022/05/20 05:25:58;;;;;;;;;;;;;;;24.06;47.33;97548.13;4218848;28;5820;-64
2022/05/20 05:28:03;;;;;;;;;;;;;;;24.07;47.39;97558.66;4215640;28;5668;-64
2022/05/20 05:30:08;;;;;;;;;;;;;;;24.10;47.71;97550.03;4216273;28;5675;-64
2022/05/20 05:32:11;;;;;;;;;;;;;;;24.16;47.56;97552.78;4211280;28;5683;-64
2022/05/20 05:34:14;;;;;;;;;;;;;;;24.23;47.37;97550.63;4214943;28;5726;-64
2022/05/20 05:36:18;;;;;;;;;;;;;;;24.32;47.50;97549.09;4215229;28;5663;-64
2022/05/20 05:38:21;;;;;;;;;;;;;;;24.44;47.42;97563.19;4218520;28;5827;-64
2022/05/20 05:40:27;;;;;;;;;;;;;;;24.56;47.41;97561.09;4217006;28;5679;-63
2022/05/20 05:42:30;;;;;;;;;;;;;;;24.68;47.25;97553.56;4219573;28;5769;-64
2022/05/20 05:44:34;;;;;;;;;;;;;;;24.80;47.32;97550.63;4216837;28;5691;-63
2022/05/20 05:46:37;;;;;;;;;;;;;;;24.89;46.93;97559.03;4216803;28;5680;-63
2022/05/20 05:48:40;;;;;;;;;;;;;;;24.97;46.90;97556.63;4215573;28;5749;-63
2022/05/20 05:50:44;;;;;;;;;;;;;;;25.07;47.31;97557.78;4213364;28;5925;-63
2022/05/20 05:52:47;;;;;;;;;;;;;;;25.14;47.12;97555.59;4214910;28;5675;-64
2022/05/20 05:54:50;;;;;;;;;;;;;;;25.21;47.04;97550.75;4216112;28;5676;-64
2022/05/20 05:56:53;;;;;;;;;;;;;;;25.29;47.09;97552.94;4215111;28;5689;-64
2022/05/20 05:58:57;;;;;;;;;;;;;;;25.37;47.18;97557.00;4217093;28;5128;-64
2022/05/20 06:01:02;;;;;;;;;;;;;;;25.45;46.98;97557.28;4216876;28;6497;-64
2022/05/20 06:03:05;;;;;;;;;;;;;;;25.49;46.97;97566.50;4217121;28;5676;-64
2022/05/20 06:05:09;;;;;;;;;;;;;;;25.52;46.78;97562.44;4218122;28;5743;-64
2022/05/20 06:07:14;;;;;;;;;;;;;;;25.54;46.53;97552.94;4217131;28;5704;-65
2022/05/20 06:09:17;;;;;;;;;;;;;;;25.55;46.45;97556.47;4217178;28;5687;-64
2022/05/20 06:11:20;;;;;;;;;;;;;;;25.58;46.48;97549.69;4216502;28;6356;-64
2022/05/20 06:13:24;;;;;;;;;;;;;;;25.62;46.51;97561.63;4216824;28;5662;-64
2022/05/20 06:15:28;;;;;;;;;;;;;;;25.64;46.62;97552.13;4220106;28;5710;-64
2022/05/20 06:17:33;;;;;;;;;;;;;;;25.67;46.92;97557.00;4216967;28;5691;-64
2022/05/20 06:19:36;;;;;;;;;;;;;;;25.69;46.61;97557.56;4217078;28;5777;-64
2022/05/20 06:21:40;;;;;;;;;;;;;;;25.73;46.72;97561.38;4216997;28;5754;-64
2022/05/20 06:23:43;;;;;;;;;;;;;;;25.75;46.44;97563.81;4217189;28;5672;-64
2022/05/20 06:25:46;;;;;;;;;;;;;;;25.78;46.41;97557.84;4214281;28;5671;-64
2022/05/20 06:28:11;;;;;;;;;;;;;;;25.82;46.39;97561.63;4200730;28;5780;-64
2022/05/20 06:30:17;;;;;;;;;;;;;;;25.83;46.38;97545.13;4219300;28;6489;-64
2022/05/20 06:32:21;;;;;;;;;;;;;;;25.88;46.27;97559.75;4204633;28;5684;-64
2022/05/20 06:34:25;;;;;;;;;;;;;;;25.93;46.46;97563.25;4219656;28;6009;-64
2022/05/20 06:41:10;;;;;;;;;;;;;;;26.02;46.21;97567.03;4220986;28;5646;-64
2022/05/20 06:43:14;;;;;;;;;;;;;;;26.00;46.21;97574.63;4219768;28;5737;-64
2022/05/20 06:45:18;;;;;;;;;;;;;;;26.00;45.98;97573.81;4218261;27;5825;-64
2022/05/20 06:47:21;;;;;;;;;;;;;;;26.00;45.97;97569.19;4212711;28;5690;-64
2022/05/20 06:49:25;;;;;;;;;;;;;;;26.01;46.01;97570.00;4224759;28;5675;-64
2022/05/20 06:51:30;;;;;;;;;;;;;;;25.98;46.33;97570.56;4218326;28;5664;-64
2022/05/20 06:53:33;;;;;;;;;;;;;;;25.97;46.26;97564.34;4220288;28;5702;-64
2022/05/20 06:55:37;;;;;;;;;;;;;;;25.94;46.10;97570.31;4219489;28;5659;-64
2022/05/20 06:57:41;;;;;;;;;;;;;;;25.93;46.09;97563.25;4218916;28;5795;-64
2022/05/20 06:59:44;;;;;;;;;;;;;;;25.92;46.04;97553.50;4218576;28;5085;-64
2022/05/20 07:01:47;;;;;;;;;;;;;;;25.92;46.26;97553.50;4218999;28;5663;-64
2022/05/20 07:04:10;;;;;;;;;;;;;;;25.91;46.09;97562.69;4211518;28;5675;-64
2022/05/20 07:06:15;;;;;;;;;;;;;;;25.90;45.90;97555.66;4219763;28;5085;-64
2022/05/20 07:08:19;;;;;;;;;;;;;;;25.88;45.97;97557.84;4222911;28;5667;-64
2022/05/20 07:10:22;;;;;;;;;;;;;;;25.87;46.27;97553.50;4218462;28;5674;-64
2022/05/20 07:12:25;;;;;;;;;;;;;;;25.87;45.99;97552.69;4217744;28;5778;-64
2022/05/20 07:14:28;;;;;;;;;;;;;;;25.86;46.12;97541.06;4218004;28;5814;-64
2022/05/20 07:16:31;;;;;;;;;;;;;;;25.85;46.16;97549.47;4224473;28;5683;-64
2022/05/20 07:18:35;;;;;;;;;;;;;;;25.86;45.91;97557.31;4218989;28;5741;-65
2022/05/20 07:20:38;;;;;;;;;;;;;;;25.88;45.81;97560.53;4218617;28;5695;-64
2022/05/20 07:22:42;;;;;;;;;;;;;;;25.86;45.89;97568.13;4219516;28;5666;-64
2022/05/20 07:24:45;;;;;;;;;;;;;;;25.86;45.88;97557.31;4218824;28;5848;-64
2022/05/20 07:26:49;;;;;;;;;;;;;;;25.87;45.94;97555.41;4218465;28;5792;-64
2022/05/20 07:28:51;;;;;;;;;;;;;;;25.87;45.94;97560.81;4217788;28;5688;-65
2022/05/20 07:30:54;;;;;;;;;;;;;;;25.86;46.00;97561.91;4217088;28;5096;-64
2022/05/20 07:32:58;;;;;;;;;;;;;;;25.83;46.10;97565.97;4219173;28;5655;-64
2022/05/20 07:35:05;;;;;;;;;;;;;;;25.80;46.19;97567.31;4218682;28;5659;-64
2022/05/20 07:37:08;;;;;;;;;;;;;;;25.80;45.85;97561.91;4218460;28;5861;-64
2022/05/20 07:39:12;;;;;;;;;;;;;;;25.82;45.59;97558.91;4219279;28;6751;-64
2022/05/20 07:41:15;;;;;;;;;;;;;;;25.84;45.71;97575.72;4219462;28;5675;-65
2022/05/20 07:43:20;;;;;;;;;;;;;;;25.83;45.81;97565.97;4218590;28;5745;-65
2022/05/20 07:45:24;;;;;;;;;;;;;;;25.81;45.59;97560.00;4219983;28;5746;-64
2022/05/20 07:47:27;;;;;;;;;;;;;;;25.82;45.48;97561.63;4217762;28;5770;-65
2022/05/20 07:49:35;;;;;;;;;;;;;;;25.82;45.59;97562.47;4218247;28;6349;-65
2022/05/20 07:51:42;;;;;;;;;;;;;;;25.85;45.41;97561.09;4218113;28;5105;-65
2022/05/20 07:53:54;;;;;;;;;;;;;;;25.85;45.39;97566.53;4218805;28;5671;-66
2022/05/20 07:56:03;;;;;;;;;;;;;;;25.86;45.33;97562.72;4217746;28;5737;-65
2022/05/20 07:58:10;;;;;;;;;;;;;;;25.88;45.34;97567.84;4217814;28;5671;-65
2022/05/20 08:00:16;;;;;;;;;;;;;;;25.88;45.16;97563.25;4218346;28;7085;-64
2022/05/20 08:02:23;;;;;;;;;;;;;;;25.88;45.38;97565.16;4220062;28;5787;-63
2022/05/20 08:06:52;;;;;;;;;;;;;;;25.91;45.09;97557.28;4218567;28;5671;-64
2022/05/20 08:09:01;;;;;;;;;;;;;;;25.91;45.24;97564.59;4211574;28;6352;-64
2022/05/20 08:11:05;;;;;;;;;;;;;;;25.91;45.20;97556.47;4216314;28;6042;-64
2022/05/20 08:13:08;;;;;;;;;;;;;;;25.90;45.03;97554.84;4217760;28;5981;-64
2022/05/20 08:15:12;;;;;;;;;;;;;;;25.91;45.09;97556.47;4217591;28;5746;-64
2022/05/20 08:17:16;;;;;;;;;;;;;;;25.90;45.07;97547.53;4217129;28;5840;-64
2022/05/20 08:19:20;;;;;;;;;;;;;;;25.87;45.28;97542.69;4218146;28;5679;-64
2022/05/20 08:21:23;;;;;;;;;;;;;;;25.86;45.35;97545.66;4217543;28;5750;-64
2022/05/20 08:23:26;;;;;;;;;;;;;;;25.87;45.05;97548.09;4229977;28;5674;-64
2022/05/20 08:25:30;;;;;;;;;;;;;;;25.90;45.15;97538.59;4216654;28;5782;-64
2022/05/20 08:27:35;;;;;;;;;;;;;;;25.89;45.29;97545.09;4217654;28;5777;-63
2022/05/20 08:29:39;;;;;;;;;;;;;;;25.91;44.85;97532.09;4211810;28;5713;-63
2022/05/20 08:31:43;;;;;;;;;;;;;;;25.92;44.80;97523.69;4221181;28;5691;-66
2022/05/20 08:33:46;;;;;;;;;;;;;;;25.96;45.08;97524.78;4217877;28;5854;-66
2022/05/20 08:35:50;;;;;;;;;;;;;;;25.99;44.80;97524.22;4219190;28;5770;-67
2022/05/20 08:37:53;;;;;;;;;;;;;;;25.99;44.70;97524.22;4218031;28;5671;-66
2022/05/20 08:39:56;;;;;;;;;;;;;;;25.94;44.64;97520.72;4217124;28;5742;-66
2022/05/20 08:41:59;;;;;;;;;;;;;;;25.92;44.66;97518.28;4217004;28;5840;-64
2022/05/20 08:44:06;;;;;;;;;;;;;;;25.94;44.64;97516.13;4217566;28;5655;-70
2022/05/20 08:46:10;;;;;;;;;;;;;;;25.98;44.60;97510.97;4217929;28;5747;-70
2022/05/20 08:48:13;;;;;;;;;;;;;;;25.98;44.95;97503.66;4216816;28;5750;-71
2022/05/20 08:50:20;;;;;;;;;;;;;;;25.99;44.91;97507.16;4216675;28;5667;-70
2022/05/20 08:52:23;;;;;;;;;;;;;;;25.99;44.65;97502.56;4214830;28;5093;-70
2022/05/20 08:54:26;;;;;;;;;;;;;;;25.99;44.89;97502.56;4217675;28;5698;-70
2022/05/20 08:56:29;;;;;;;;;;;;;;;26.00;44.49;97506.88;4215609;28;5758;-71
2022/05/20 08:58:32;;;;;;;;;;;;;;;26.00;44.68;97503.38;4216146;28;5877;-70
2022/05/20 09:00:37;;;;;;;;;;;;;;;25.99;44.59;97496.31;4216199;28;5679;-71
2022/05/20 09:02:42;;;;;;;;;;;;;;;26.01;44.68;97494.16;4214144;28;5668;-70
2022/05/20 09:04:51;;;;;;;;;;;;;;;26.00;44.42;97487.91;4226636;28;5653;-71
2022/05/20 09:07:01;;;;;;;;;;;;;;;26.01;44.47;97488.72;4217296;27;5687;-70
2022/05/20 09:09:11;;;;;;;;;;;;;;;26.00;44.54;97470.84;4218307;28;5770;-70
2022/05/20 09:11:18;;;;;;;;;;;;;;;26.01;44.66;97473.28;4216921;28;5736;-70
2022/05/20 09:13:23;;;;;;;;;;;;;;;26.03;44.34;97465.69;4217328;28;5672;-71
2022/05/20 09:15:57;;;;;;;;;;;;;;;26.04;44.53;97466.50;4217992;28;5680;-71
2022/05/20 09:18:04;;;;;;;;;;;;;;;26.04;44.69;97459.19;4217584;28;5695;-71
2022/05/20 09:20:10;;;;;;;;;;;;;;;26.01;44.67;97459.75;4217305;28;5779;-70
2022/05/20 09:22:15;;;;;;;;;;;;;;;25.98;44.44;97452.19;4216948;28;5799;-71
2022/05/20 09:24:21;;;;;;;;;;;;;;;26.00;44.73;97449.19;4217671;28;5714;-71
2022/05/20 09:26:26;;;;;;;;;;;;;;;26.03;44.33;97454.84;4217411;28;7754;-71
2022/05/20 09:28:36;;;;;;;;;;;;;;;26.06;44.69;97448.09;4216118;28;5806;-71
2022/05/20 09:30:41;;;;;;;;;;;;;;;26.07;44.58;97444.28;4216800;28;5649;-70
2022/05/20 09:33:01;;;;;;;;;;;;;;;26.07;44.77;97445.09;4221714;28;5676;-71
2022/05/20 09:35:08;;;;;;;;;;;;;;;26.06;44.43;97448.09;4221163;28;5765;-70
2022/05/20 09:37:21;;;;;;;;;;;;;;;26.05;44.73;97441.88;4211273;28;5803;-70
2022/05/20 09:39:30;;;;;;;;;;;;;;;26.08;44.56;97435.06;4218472;27;5679;-70
2022/05/20 09:41:33;;;;;;;;;;;;;;;26.11;44.34;97427.19;4217485;28;5799;-71
2022/05/20 09:43:40;;;;;;;;;;;;;;;26.12;44.47;97431.53;4216739;28;5676;-70
2022/05/20 09:45:45;;;;;;;;;;;;;;;26.14;44.78;97431.25;4217312;28;5684;-69
2022/05/20 09:47:53;;;;;;;;;;;;;;;26.15;44.60;97432.88;4217141;28;5747;-70
2022/05/20 09:50:02;;;;;;;;;;;;;;;26.17;44.46;97422.59;4215913;28;5096;-70
2022/05/20 09:52:18;;;;;;;;;;;;;;;26.18;44.57;97426.09;4217362;28;5663;-71
2022/05/20 09:54:24;;;;;;;;;;;;;;;26.19;44.41;97419.59;4217448;28;5197;-70
2022/05/20 09:56:29;;;;;;;;;;;;;;;26.18;44.62;97417.97;4217374;28;5691;-70
2022/05/20 09:58:32;;;;;;;;;;;;;;;26.18;44.51;97421.50;4217204;28;5683;-70
2022/05/20 10:00:37;;;;;;;;;;;;;;;26.20;44.68;97415.78;4217152;28;5854;-71
2022/05/20 10:02:45;;;;;;;;;;;;;;;26.19;44.88;97412.28;4217736;28;5667;-69
2022/05/20 10:05:01;;;;;;;;;;;;;;;26.21;44.92;97417.41;4220377;28;5734;-69
2022/05/20 10:07:10;;;;;;;;;;;;;;;26.22;44.64;97413.59;4220201;28;5775;-70
2022/05/20 10:09:34;;;;;;;;;;;;;;;26.22;44.66;97413.59;4217084;28;5634;-69
2022/05/20 10:11:44;;;;;;;;;;;;;;;26.22;44.71;97408.19;4220715;28;5667;-69
2022/05/20 10:13:53;;;;;;;;;;;;;;;26.24;44.71;97408.72;4219918;28;5687;-70
2022/05/20 10:16:09;;;;;;;;;;;;;;;26.26;44.72;97404.63;4220399;28;5781;-70
2022/05/20 10:18:22;;;;;;;;;;;;;;;26.27;44.67;97395.41;4220521;28;5688;-70
2022/05/20 10:20:34;;;;;;;;;;;;;;;26.26;44.70;97392.97;4203963;28;5085;-71
2022/05/20 10:22:48;;;;;;;;;;;;;;;26.26;44.91;97388.38;4203410;28;5708;-71
2022/05/20 10:24:58;;;;;;;;;;;;;;;26.27;44.77;97389.16;4201951;28;5699;-71
2022/05/20 10:27:05;;;;;;;;;;;;;;;26.28;44.93;97386.22;4218744;28;5645;-72
2022/05/20 10:34:07;;;;;;;;;;;;;;;26.35;44.55;97385.88;4206093;28;5683;-71
2022/05/20 10:36:20;;;;;;;;;;;;;;;26.37;44.82;97378.31;4218334;28;5675;-71
2022/05/20 10:38:49;;;;;;;;;;;;;;;26.39;44.95;97378.88;4204966;28;5770;-70
2022/05/20 10:41:00;;;;;;;;;;;;;;;26.43;44.58;97374.50;4201328;28;6419;-71
2022/05/20 10:43:25;;;;;;;;;;;;;;;26.47;44.52;97375.53;4202928;28;5692;-72
2022/05/20 10:50:54;;;;;;;;;;;;;;;26.53;44.82;97371.72;4168235;28;5805;-70
2022/05/20 10:53:10;;;;;;;;;;;;;;;26.55;44.89;97364.09;4173667;28;5738;-71
2022/05/20 10:55:29;;;;;;;;;;;;;;;26.57;44.70;97361.09;4181835;28;5784;-70
2022/05/20 10:57:53;;;;;;;;;;;;;;;26.60;44.79;97361.34;4173920;28;5748;-71
2022/05/20 11:00:07;;;;;;;;;;;;;;;26.64;44.94;97353.47;4129056;28;6466;-71
2022/05/20 11:02:40;;;;;;;;;;;;;;;26.66;44.91;97354.81;4151561;28;5112;-71
2022/05/20 11:05:12;;;;;;;;;;;;;;;26.67;44.68;97350.19;4127800;28;5784;-70
2022/05/20 11:07:35;;;;;;;;;;;;;;;26.69;44.54;97337.16;4168055;28;5791;-70
2022/05/20 11:09:52;;;;;;;;;;;;;;;26.70;44.51;97334.16;4167865;28;5774;-70
2022/05/20 11:11:59;;;;;;;;;;;;;;;26.73;44.80;97340.94;4167617;28;5786;-70
2022/05/20 11:14:20;;;;;;;;;;;;;;;26.75;44.78;97336.03;4168088;28;5804;-70
2022/05/20 11:16:45;;;;;;;;;;;;;;;26.79;44.64;97338.97;4180837;28;6442;-70
2022/05/20 11:19:02;;;;;;;;;;;;;;;26.80;44.38;97332.44;4167203;28;5794;-72
2022/05/20 11:21:22;;;;;;;;;;;;;;;26.83;44.28;97321.84;4184355;28;6850;-72
2022/05/20 11:23:43;;;;;;;;;;;;;;;26.86;44.19;97325.91;4183231;28;5757;-75
2022/05/20 11:26:03;;;;;;;;;;;;;;;26.88;44.15;97318.28;4204771;28;5679;-74
2022/05/20 11:28:46;;;;;;;;;;;;;;;26.90;44.15;97302.53;4217629;28;5710;-71
2022/05/20 11:31:03;;;;;;;;;;;;;;;26.93;44.13;97307.38;4183611;28;5781;-74
2022/05/20 11:33:39;;;;;;;;;;;;;;;26.95;43.73;97299.75;4183770;28;5959;-73
2022/05/20 11:35:59;;;;;;;;;;;;;;;26.98;43.89;97301.91;4188098;28;5724;-71
2022/05/20 11:38:47;;;;;;;;;;;;;;;27.00;43.65;97305.16;4200122;28;5716;-69
2022/05/20 11:41:12;;;;;;;;;;;;;;;26.99;43.55;97292.69;4193029;28;5712;-70
2022/05/20 11:43:40;;;;;;;;;;;;;;;27.00;43.87;97294.28;4197838;28;5728;-71
2022/05/20 11:45:52;;;;;;;;;;;;;;;27.02;43.58;97289.41;4196290;28;6587;-72